createdAt,value
2023-05-10T00:00:01.653Z,95.74
2023-05-10T00:02:28.289Z,95.62
2023-05-10T00:04:54.791Z,95.85
2023-05-10T00:07:21.163Z,95.66
2023-05-10T00:09:47.609Z,95.68
2023-05-10T00:12:14.127Z,95.62
2023-05-10T00:14:40.510Z,95.82
2023-05-10T00:17:06.897Z,95.82
2023-05-10T00:19:33.477Z,95.93
2023-05-10T00:21:59.877Z,95.95
2023-05-10T00:24:26.270Z,96.04
2023-05-10T00:26:52.645Z,96.03
2023-05-10T00:29:19.053Z,96.02
2023-05-10T00:31:45.565Z,96.02
2023-05-10T00:34:12.033Z,96.03
2023-05-10T00:36:38.517Z,95.92
2023-05-10T00:39:04.961Z,95.98
2023-05-10T00:41:34.757Z,96.20
2023-05-10T00:44:02.928Z,95.94
2023-05-10T00:46:29.743Z,96.25
2023-05-10T00:48:56.399Z,96.36
2023-05-10T00:51:23.446Z,96.42
2023-05-10T00:53:50.514Z,96.71
2023-05-10T00:56:17.425Z,96.81
2023-05-10T00:58:44.107Z,96.71
2023-05-10T01:01:10.816Z,96.83
2023-05-10T01:03:37.561Z,96.93
2023-05-10T01:06:04.431Z,97.08
2023-05-10T01:08:30.869Z,97.26
2023-05-10T01:10:57.821Z,97.43
2023-05-10T01:13:33.902Z,97.63
2023-05-10T01:16:03.039Z,97.58
2023-05-10T01:18:31.668Z,97.73
2023-05-10T01:21:28.418Z,97.63
2023-05-10T01:24:18.784Z,97.82
2023-05-10T01:27:15.732Z,97.99
2023-05-10T01:30:15.632Z,97.86
2023-05-10T01:33:01.133Z,97.88
2023-05-10T01:35:52.749Z,98.05
2023-05-10T01:38:56.235Z,98.07
2023-05-10T01:41:50.482Z,98.15
2023-05-10T01:45:01.115Z,98.32
2023-05-10T01:47:27.460Z,98.31
2023-05-10T01:49:56.682Z,98.31
2023-05-10T01:52:29.813Z,98.43
2023-05-10T01:55:10.044Z,98.34
2023-05-10T01:57:40.520Z,98.21
2023-05-10T02:00:08.815Z,98.45
2023-05-10T02:02:39.784Z,98.39
2023-05-10T02:05:07.542Z,98.32
2023-05-10T02:07:38.011Z,98.52
2023-05-10T02:10:06.949Z,98.35
2023-05-10T02:12:36.994Z,98.64
2023-05-10T02:15:06.638Z,98.55
2023-05-10T02:17:34.001Z,98.48
2023-05-10T02:20:02.161Z,98.55
2023-05-10T02:22:29.524Z,98.73
2023-05-10T02:24:58.892Z,98.59
2023-05-10T02:27:28.243Z,98.54
2023-05-10T02:29:55.565Z,98.53
2023-05-10T02:32:24.516Z,98.81
2023-05-10T02:34:52.922Z,98.49
2023-05-10T02:37:23.661Z,98.60
2023-05-10T02:39:51.755Z,98.57
2023-05-10T02:42:20.707Z,98.63
2023-05-10T02:44:50.805Z,98.54
2023-05-10T02:47:18.984Z,98.43
2023-05-10T02:49:45.688Z,98.53
2023-05-10T02:52:20.241Z,98.62
2023-05-10T02:54:51.702Z,98.66
2023-05-10T02:57:35.254Z,98.61
2023-05-10T03:00:03.959Z,98.54
2023-05-10T03:02:31.800Z,98.49
2023-05-10T03:04:58.506Z,98.46
2023-05-10T03:07:25.091Z,98.62
2023-05-10T03:09:51.878Z,98.18
2023-05-10T03:12:55.970Z,98.36
2023-05-10T03:15:45.693Z,98.43
2023-05-10T03:18:22.391Z,98.68
2023-05-10T03:20:51.318Z,98.66
2023-05-10T03:23:28.373Z,98.52
2023-05-10T03:25:55.399Z,98.78
2023-05-10T03:28:22.718Z,98.86
2023-05-10T03:30:50.520Z,98.91
2023-05-10T03:33:16.988Z,98.97
2023-05-10T03:35:45.073Z,98.73
2023-05-10T03:38:11.465Z,98.82
2023-05-10T03:40:38.233Z,98.95
2023-05-10T03:43:05.058Z,98.92
2023-05-10T03:45:31.909Z,98.98
2023-05-10T03:47:59.274Z,99.05
2023-05-10T03:50:26.028Z,99.04
2023-05-10T03:52:54.560Z,99.22
2023-05-10T03:55:21.380Z,99.16
2023-05-10T03:57:50.430Z,99.16
2023-05-10T04:00:17.469Z,99.08
2023-05-10T04:02:45.888Z,99.14
2023-05-10T04:05:12.692Z,99.16
2023-05-10T04:07:39.094Z,99.19
2023-05-10T04:10:06.127Z,99.31
2023-05-10T04:12:32.513Z,99.26
2023-05-10T04:14:58.860Z,99.29
2023-05-10T04:17:25.280Z,99.13
2023-05-10T04:19:54.020Z,99.16
2023-05-10T04:22:20.445Z,99.30
2023-05-10T04:24:46.839Z,99.28
2023-05-10T04:27:13.240Z,99.32
2023-05-10T04:29:39.669Z,99.27
2023-05-10T04:32:06.095Z,99.28
2023-05-10T04:34:34.993Z,99.30
2023-05-10T04:37:01.586Z,99.53
2023-05-10T04:39:28.089Z,99.21
2023-05-10T04:41:54.515Z,99.24
2023-05-10T04:44:20.907Z,99.41
2023-05-10T04:46:47.386Z,99.22
2023-05-10T04:49:14.032Z,99.41
2023-05-10T04:51:40.504Z,99.35
2023-05-10T04:54:07.086Z,99.41
2023-05-10T04:56:33.857Z,99.32
2023-05-10T04:59:00.442Z,99.40
2023-05-10T05:01:27.080Z,99.38
2023-05-10T05:03:54.033Z,99.38
2023-05-10T05:06:21.888Z,99.64
2023-05-10T05:08:50.129Z,99.41
2023-05-10T05:11:16.745Z,99.49
2023-05-10T05:13:43.150Z,99.42
2023-05-10T05:16:09.573Z,99.41
2023-05-10T05:18:35.926Z,99.45
2023-05-10T05:21:02.381Z,99.37
2023-05-10T05:23:28.767Z,99.00
2023-05-10T05:25:55.353Z,99.47
2023-05-10T05:28:21.908Z,99.43
2023-05-10T05:30:48.323Z,99.51
2023-05-10T05:33:16.378Z,99.13
2023-05-10T05:35:45.668Z,99.32
2023-05-10T05:38:12.279Z,99.32
2023-05-10T05:40:38.764Z,99.35
2023-05-10T05:43:05.157Z,99.12
2023-05-10T05:45:31.810Z,99.23
2023-05-10T05:47:58.265Z,99.24
2023-05-10T05:50:24.742Z,99.03
2023-05-10T05:52:51.285Z,98.98
2023-05-10T05:55:18.760Z,98.88
2023-05-10T05:57:45.409Z,98.67
2023-05-10T06:00:12.207Z,98.70
2023-05-10T06:02:38.675Z,98.95
2023-05-10T06:05:05.594Z,98.67
2023-05-10T06:07:31.991Z,98.74
2023-05-10T06:09:58.554Z,98.54
2023-05-10T06:12:24.925Z,98.57
2023-05-10T06:14:51.414Z,98.39
2023-05-10T06:17:17.830Z,98.39
2023-05-10T06:19:44.276Z,98.36
2023-05-10T06:22:10.932Z,98.16
2023-05-10T06:24:37.288Z,98.22
2023-05-10T06:27:05.053Z,98.22
2023-05-10T06:29:31.847Z,98.22
2023-05-10T06:31:58.345Z,98.21
2023-05-10T06:34:25.098Z,98.27
2023-05-10T06:36:51.479Z,98.15
2023-05-10T06:39:18.071Z,97.96
2023-05-10T06:41:44.491Z,98.04
2023-05-10T06:44:10.878Z,97.54
2023-05-10T06:46:37.425Z,97.30
2023-05-10T06:49:04.348Z,97.09
2023-05-10T06:51:30.773Z,97.26
2023-05-10T06:53:57.246Z,97.22
2023-05-10T06:56:23.855Z,97.17
2023-05-10T06:58:50.346Z,96.97
2023-05-10T07:01:16.940Z,97.06
2023-05-10T07:03:43.433Z,96.78
2023-05-10T07:06:21.715Z,96.51
2023-05-10T07:08:56.703Z,96.24
2023-05-10T07:11:23.314Z,96.30
2023-05-10T07:13:49.694Z,95.92
2023-05-10T07:16:16.233Z,95.55
2023-05-10T07:18:42.650Z,95.25
2023-05-10T07:21:09.610Z,95.18
2023-05-10T07:23:36.203Z,95.28
2023-05-10T07:26:03.246Z,94.88
2023-05-10T07:28:29.937Z,95.06
2023-05-10T07:30:56.605Z,94.69
2023-05-10T07:33:23.131Z,94.53
2023-05-10T07:35:50.718Z,94.52
2023-05-10T07:38:18.367Z,94.35
2023-05-10T07:40:44.859Z,94.30
2023-05-10T07:43:11.249Z,94.48
2023-05-10T07:45:37.753Z,94.05
2023-05-10T07:48:04.259Z,93.96
2023-05-10T07:50:30.766Z,93.54
2023-05-10T07:52:57.541Z,93.24
2023-05-10T07:55:24.097Z,92.50
2023-05-10T07:57:50.657Z,92.12
2023-05-10T08:00:21.398Z,92.06
2023-05-10T08:02:48.483Z,92.13
2023-05-10T08:05:15.679Z,91.62
2023-05-10T08:07:43.347Z,91.20
2023-05-10T08:10:11.925Z,90.93
2023-05-10T08:12:39.285Z,91.44
2023-05-10T08:15:06.477Z,91.24
2023-05-10T08:17:33.509Z,91.29
2023-05-10T08:19:59.931Z,91.00
2023-05-10T08:22:27.014Z,90.94
2023-05-10T08:24:53.486Z,91.49
2023-05-10T08:27:19.933Z,91.37
2023-05-10T08:29:50.108Z,91.26
2023-05-10T08:32:16.731Z,91.54
2023-05-10T08:34:43.227Z,91.48
2023-05-10T08:37:09.738Z,90.79
2023-05-10T08:39:36.835Z,90.38
2023-05-10T08:42:05.719Z,90.56
2023-05-10T08:44:33.593Z,91.05
2023-05-10T08:47:03.429Z,90.89
2023-05-10T08:49:32.554Z,90.68
2023-05-10T08:52:04.099Z,90.12
2023-05-10T08:54:32.400Z,89.83
2023-05-10T08:56:59.143Z,90.22
2023-05-10T08:59:25.902Z,90.05
2023-05-10T09:01:54.546Z,90.56
2023-05-10T09:04:21.966Z,90.82
2023-05-10T09:06:48.908Z,90.56
2023-05-10T09:09:17.013Z,88.57
2023-05-10T09:11:44.348Z,87.45
2023-05-10T09:14:11.228Z,87.26
2023-05-10T09:16:37.760Z,87.65
2023-05-10T09:19:04.621Z,85.67
2023-05-10T09:21:32.450Z,85.34
2023-05-10T09:24:03.985Z,86.06
2023-05-10T09:26:30.610Z,84.83
2023-05-10T09:28:59.432Z,83.00
2023-05-10T09:31:45.726Z,81.36
2023-05-10T09:34:12.137Z,80.13
2023-05-10T09:36:51.629Z,80.72
2023-05-10T09:39:18.927Z,81.89
2023-05-10T09:41:45.365Z,81.74
2023-05-10T09:44:11.724Z,79.62
2023-05-10T09:46:38.321Z,80.59
2023-05-10T09:49:06.472Z,80.09
2023-05-10T09:51:35.066Z,78.90
2023-05-10T09:54:16.885Z,78.96
2023-05-10T09:56:44.022Z,78.38
2023-05-10T09:59:12.489Z,80.87
2023-05-10T10:01:39.906Z,80.42
2023-05-10T10:04:08.583Z,78.70
2023-05-10T10:06:41.385Z,80.13
2023-05-10T10:09:08.525Z,79.33
2023-05-10T10:11:39.736Z,81.35
2023-05-10T10:14:06.555Z,79.54
2023-05-10T10:16:33.687Z,80.32
2023-05-10T10:19:00.365Z,79.89
2023-05-10T10:21:27.773Z,79.99
2023-05-10T10:23:54.190Z,81.15
2023-05-10T10:26:22.028Z,81.40
2023-05-10T10:29:23.583Z,81.57
2023-05-10T10:31:54.614Z,78.46
2023-05-10T10:34:28.148Z,80.65
2023-05-10T10:36:56.376Z,78.40
2023-05-10T10:39:25.978Z,80.19
2023-05-10T10:41:55.240Z,79.40
2023-05-10T10:44:37.789Z,80.29
2023-05-10T10:47:15.247Z,80.68
2023-05-10T10:49:45.005Z,79.64
2023-05-10T10:52:17.347Z,80.10
2023-05-10T10:54:54.652Z,78.29
2023-05-10T10:57:22.686Z,78.62
2023-05-10T10:59:49.840Z,78.45
2023-05-10T11:02:46.752Z,78.52
2023-05-10T11:05:28.545Z,78.75
2023-05-10T11:07:56.316Z,78.21
2023-05-10T11:10:24.146Z,77.10
2023-05-10T11:13:04.298Z,78.17
2023-05-10T11:15:32.798Z,79.29
2023-05-10T11:18:00.125Z,77.86
2023-05-10T11:20:34.418Z,79.21
2023-05-10T11:23:13.916Z,79.79
2023-05-10T11:25:47.581Z,78.84
2023-05-10T11:28:14.159Z,79.32
2023-05-10T11:30:42.061Z,78.25
2023-05-10T11:33:09.885Z,78.39
2023-05-10T11:35:43.194Z,78.67
2023-05-10T11:38:11.921Z,77.47
2023-05-10T11:40:39.548Z,74.77
2023-05-10T11:43:09.428Z,75.04
2023-05-10T11:45:37.031Z,73.75
2023-05-10T11:48:03.908Z,72.99
2023-05-10T11:50:30.645Z,70.95
2023-05-10T11:52:58.137Z,70.37
2023-05-10T11:55:27.501Z,72.72
2023-05-10T11:58:02.517Z,72.84
2023-05-10T12:00:29.813Z,74.31
2023-05-10T12:02:56.589Z,72.30
2023-05-10T12:05:23.659Z,74.44
2023-05-10T12:07:50.090Z,73.91
2023-05-10T12:10:18.302Z,73.46
2023-05-10T12:12:46.858Z,74.52
2023-05-10T12:15:19.674Z,73.20
2023-05-10T12:17:47.353Z,75.07
2023-05-10T12:20:16.458Z,74.64
2023-05-10T12:22:55.552Z,71.86
2023-05-10T12:25:24.099Z,71.34
2023-05-10T12:27:56.029Z,70.89
2023-05-10T12:30:28.396Z,72.34
2023-05-10T12:32:59.978Z,73.78
2023-05-10T12:35:26.823Z,70.22
2023-05-10T12:37:53.202Z,68.60
2023-05-10T12:40:19.779Z,69.75
2023-05-10T12:42:46.327Z,67.00
2023-05-10T12:45:13.169Z,68.48
2023-05-10T12:47:42.212Z,70.16
2023-05-10T12:50:10.652Z,67.26
2023-05-10T12:52:37.090Z,69.50
2023-05-10T12:55:04.117Z,68.95
2023-05-10T12:57:30.695Z,68.23
2023-05-10T12:59:57.121Z,67.39
2023-05-10T13:02:24.085Z,67.56
2023-05-10T13:04:51.205Z,67.01
2023-05-10T13:07:17.776Z,69.76
2023-05-10T13:09:44.461Z,70.62
2023-05-10T13:12:10.916Z,69.92
2023-05-10T13:14:37.341Z,70.02
2023-05-10T13:17:03.799Z,72.29
2023-05-10T13:19:30.545Z,73.84
2023-05-10T13:21:57.029Z,75.93
2023-05-10T13:24:23.781Z,77.83
2023-05-10T13:26:50.338Z,79.85
2023-05-10T13:29:18.892Z,80.39
2023-05-10T13:31:45.323Z,81.92
2023-05-10T13:34:12.053Z,82.37
2023-05-10T13:36:39.081Z,84.60
2023-05-10T13:39:06.284Z,85.26
2023-05-10T13:41:32.822Z,85.03
2023-05-10T13:43:59.236Z,86.25
2023-05-10T13:46:25.686Z,86.40
2023-05-10T13:48:52.106Z,87.29
2023-05-10T13:51:18.633Z,87.25
2023-05-10T13:53:45.016Z,87.44
2023-05-10T13:56:11.419Z,87.39
2023-05-10T13:58:37.983Z,87.99
2023-05-10T14:01:05.785Z,88.55
2023-05-10T14:03:32.308Z,88.69
2023-05-10T14:05:58.976Z,88.67
2023-05-10T14:08:25.400Z,89.07
2023-05-10T14:10:53.218Z,88.95
2023-05-10T14:13:19.632Z,89.42
2023-05-10T14:15:46.047Z,89.23
2023-05-10T14:18:12.481Z,88.84
2023-05-10T14:20:38.878Z,88.75
2023-05-10T14:23:05.289Z,88.72
2023-05-10T14:25:31.895Z,88.73
2023-05-10T14:27:58.263Z,88.80
2023-05-10T14:30:24.657Z,88.65
2023-05-10T14:32:51.198Z,88.79
2023-05-10T14:35:19.392Z,89.14
2023-05-10T14:37:46.428Z,89.63
2023-05-10T14:40:13.332Z,89.73
2023-05-10T14:42:39.720Z,90.07
2023-05-10T14:45:06.565Z,89.87
2023-05-10T14:47:33.166Z,89.89
2023-05-10T14:49:59.588Z,89.73
2023-05-10T14:52:26.664Z,89.46
2023-05-10T14:54:53.137Z,89.61
2023-05-10T14:57:19.485Z,89.48
2023-05-10T14:59:45.848Z,89.43
2023-05-10T15:02:13.610Z,89.60
2023-05-10T15:04:40.361Z,89.52
2023-05-10T15:07:07.127Z,89.31
2023-05-10T15:09:33.523Z,89.04
2023-05-10T15:11:59.869Z,88.77
2023-05-10T15:14:26.210Z,88.49
2023-05-10T15:16:52.615Z,88.54
2023-05-10T15:19:18.997Z,89.22
2023-05-10T15:21:45.984Z,89.25
2023-05-10T15:24:12.432Z,88.66
2023-05-10T15:26:38.836Z,87.81
2023-05-10T15:29:05.200Z,88.08
2023-05-10T15:31:31.973Z,88.17
2023-05-10T15:34:01.789Z,87.84
2023-05-10T15:36:28.277Z,87.51
2023-05-10T15:38:55.129Z,87.36
2023-05-10T15:41:21.820Z,86.80
2023-05-10T15:43:48.207Z,86.21
2023-05-10T15:46:14.703Z,87.52
2023-05-10T15:48:41.186Z,86.44
2023-05-10T15:51:07.652Z,86.88
2023-05-10T15:53:34.094Z,87.91
2023-05-10T15:56:00.589Z,85.53
2023-05-10T15:58:27.034Z,85.37
2023-05-10T16:00:53.513Z,85.63
2023-05-10T16:03:19.912Z,85.81
2023-05-10T16:05:46.615Z,87.08
2023-05-10T16:08:13.225Z,87.08
2023-05-10T16:10:39.842Z,86.18
2023-05-10T16:13:06.293Z,86.45
2023-05-10T16:15:32.914Z,85.47
2023-05-10T16:17:59.880Z,85.46
2023-05-10T16:20:26.961Z,85.74
2023-05-10T16:22:53.414Z,85.78
2023-05-10T16:25:20.120Z,86.25
2023-05-10T16:27:46.763Z,86.17
2023-05-10T16:30:13.340Z,86.24
2023-05-10T16:32:39.752Z,85.49
2023-05-10T16:35:07.037Z,86.10
2023-05-10T16:37:33.466Z,86.14
2023-05-10T16:39:59.823Z,86.55
2023-05-10T16:42:28.133Z,86.02
2023-05-10T16:44:54.895Z,87.31
2023-05-10T16:47:21.274Z,87.01
2023-05-10T16:49:47.674Z,86.72
2023-05-10T16:52:14.071Z,85.17
2023-05-10T16:54:40.446Z,83.63
2023-05-10T16:57:07.367Z,84.27
2023-05-10T16:59:33.971Z,84.26
2023-05-10T17:02:00.569Z,84.00
2023-05-10T17:04:27.000Z,83.26
2023-05-10T17:06:53.339Z,80.49
2023-05-10T17:09:20.685Z,82.41
2023-05-10T17:11:47.360Z,81.72
2023-05-10T17:14:13.864Z,81.37
2023-05-10T17:16:40.306Z,82.66
2023-05-10T17:19:06.964Z,83.02
2023-05-10T17:21:33.398Z,82.78
2023-05-10T17:24:05.844Z,81.64
2023-05-10T17:26:32.324Z,80.81
2023-05-10T17:28:58.720Z,81.34
2023-05-10T17:31:25.188Z,82.22
2023-05-10T17:33:51.693Z,82.75
2023-05-10T17:36:18.157Z,81.40
2023-05-10T17:38:44.695Z,81.37
2023-05-10T17:41:11.103Z,81.54
2023-05-10T17:43:37.496Z,80.07
2023-05-10T17:46:04.137Z,81.08
2023-05-10T17:48:30.855Z,81.43
2023-05-10T17:50:57.381Z,81.53
2023-05-10T17:53:24.430Z,81.45
2023-05-10T17:55:52.084Z,81.32
2023-05-10T17:58:18.496Z,81.27
2023-05-10T18:00:44.894Z,82.31
2023-05-10T18:03:11.603Z,82.68
2023-05-10T18:05:38.993Z,82.63
2023-05-10T18:08:05.962Z,81.66
2023-05-10T18:10:32.479Z,82.15
2023-05-10T18:12:58.982Z,82.41
2023-05-10T18:15:26.597Z,82.23
2023-05-10T18:17:53.217Z,81.86
2023-05-10T18:20:22.654Z,82.81
2023-05-10T18:22:49.165Z,82.86
2023-05-10T18:25:15.766Z,82.20
2023-05-10T18:27:42.360Z,82.95
2023-05-10T18:30:10.107Z,82.70
2023-05-10T18:32:38.268Z,83.19
2023-05-10T18:35:05.110Z,83.77
2023-05-10T18:37:31.855Z,83.58
2023-05-10T18:39:58.268Z,84.48
2023-05-10T18:42:24.737Z,83.73
2023-05-10T18:44:51.116Z,84.84
2023-05-10T18:47:17.636Z,84.15
2023-05-10T18:49:46.101Z,84.93
2023-05-10T18:52:12.962Z,85.63
2023-05-10T18:54:39.310Z,85.21
2023-05-10T18:57:06.070Z,85.27
2023-05-10T18:59:32.656Z,85.12
2023-05-10T19:01:59.279Z,84.90
2023-05-10T19:04:25.838Z,85.45
2023-05-10T19:06:52.856Z,84.93
2023-05-10T19:09:20.202Z,85.62
2023-05-10T19:11:46.722Z,85.33
2023-05-10T19:14:13.111Z,85.75
2023-05-10T19:16:41.793Z,85.94
2023-05-10T19:19:09.543Z,86.00
2023-05-10T19:21:36.140Z,86.07
2023-05-10T19:24:02.724Z,86.04
2023-05-10T19:26:29.436Z,86.16
2023-05-10T19:28:57.461Z,85.91
2023-05-10T19:31:24.614Z,85.86
2023-05-10T19:33:51.088Z,86.17
2023-05-10T19:36:17.554Z,86.17
2023-05-10T19:38:44.025Z,86.63
2023-05-10T19:41:11.421Z,87.12
2023-05-10T19:43:38.969Z,87.06
2023-05-10T19:46:05.876Z,87.06
2023-05-10T19:48:32.523Z,86.67
2023-05-10T19:51:03.068Z,86.43
2023-05-10T19:53:29.819Z,86.80
2023-05-10T19:55:56.422Z,86.89
2023-05-10T19:58:23.636Z,87.11
2023-05-10T20:00:50.190Z,87.62
2023-05-10T20:03:16.655Z,87.69
2023-05-10T20:05:43.058Z,87.56
2023-05-10T20:08:09.412Z,87.59
2023-05-10T20:10:35.796Z,87.84
2023-05-10T20:13:02.168Z,88.03
2023-05-10T20:15:29.150Z,88.28
2023-05-10T20:17:55.829Z,88.19
2023-05-10T20:20:22.699Z,88.23
2023-05-10T20:22:49.756Z,88.55
2023-05-10T20:25:17.388Z,89.11
2023-05-10T20:27:43.740Z,88.95
2023-05-10T20:30:10.692Z,89.13
2023-05-10T20:32:38.048Z,89.21
2023-05-10T20:35:05.568Z,89.33
2023-05-10T20:37:32.067Z,89.51
2023-05-10T20:39:58.703Z,89.56
2023-05-10T20:42:25.100Z,89.67
2023-05-10T20:44:51.636Z,89.64
2023-05-10T20:47:18.167Z,89.72
2023-05-10T20:49:44.564Z,89.72
2023-05-10T20:52:11.033Z,89.71
2023-05-10T20:54:37.409Z,89.80
2023-05-10T20:57:03.781Z,90.02
2023-05-10T20:59:30.577Z,90.18
2023-05-10T21:01:57.660Z,90.03
2023-05-10T21:04:25.780Z,90.41
2023-05-10T21:06:53.002Z,90.40
2023-05-10T21:09:19.550Z,90.14
2023-05-10T21:11:46.094Z,90.22
2023-05-10T21:14:12.498Z,90.39
2023-05-10T21:16:38.991Z,90.50
2023-05-10T21:19:07.159Z,90.44
2023-05-10T21:21:33.882Z,90.11
2023-05-10T21:24:00.249Z,90.36
2023-05-10T21:26:26.697Z,90.50
2023-05-10T21:28:53.185Z,90.67
2023-05-10T21:31:19.724Z,90.54
2023-05-10T21:33:46.117Z,90.35
2023-05-10T21:36:13.031Z,90.35
2023-05-10T21:38:39.677Z,90.32
2023-05-10T21:41:07.746Z,90.34
2023-05-10T21:43:34.276Z,90.44
2023-05-10T21:46:01.066Z,90.76
2023-05-10T21:48:27.450Z,90.30
2023-05-10T21:50:53.838Z,90.45
2023-05-10T21:53:20.594Z,90.58
2023-05-10T21:55:48.153Z,90.74
2023-05-10T21:58:14.547Z,90.91
2023-05-10T22:00:40.937Z,90.72
2023-05-10T22:03:07.411Z,90.83
2023-05-10T22:05:33.881Z,91.02
2023-05-10T22:08:00.273Z,90.99
2023-05-10T22:10:26.678Z,91.28
2023-05-10T22:12:53.111Z,91.06
2023-05-10T22:15:19.781Z,91.25
2023-05-10T22:17:46.263Z,91.39
2023-05-10T22:20:12.854Z,91.43
2023-05-10T22:22:39.219Z,91.49
2023-05-10T22:25:07.424Z,91.46
2023-05-10T22:27:34.395Z,91.45
2023-05-10T22:30:01.445Z,91.64
2023-05-10T22:32:28.285Z,91.75
2023-05-10T22:34:54.920Z,91.66
2023-05-10T22:37:21.373Z,91.95
2023-05-10T22:39:48.620Z,91.89
2023-05-10T22:42:15.611Z,91.96
2023-05-10T22:44:43.314Z,92.02
2023-05-10T22:47:09.787Z,92.36
2023-05-10T22:49:36.466Z,92.28
2023-05-10T22:52:02.982Z,92.32
2023-05-10T22:54:29.430Z,92.55
2023-05-10T22:56:56.602Z,92.53
2023-05-10T22:59:23.676Z,92.36
2023-05-10T23:01:50.711Z,92.55
2023-05-10T23:04:17.295Z,92.44
2023-05-10T23:06:43.776Z,92.69
2023-05-10T23:09:10.235Z,92.74
2023-05-10T23:11:36.712Z,92.69
2023-05-10T23:14:03.500Z,92.68
2023-05-10T23:16:30.763Z,92.74
2023-05-10T23:18:57.309Z,92.73
2023-05-10T23:21:25.243Z,92.89
2023-05-10T23:23:52.500Z,92.92
2023-05-10T23:26:19.056Z,93.04
2023-05-10T23:28:45.440Z,93.25
2023-05-10T23:31:11.823Z,92.97
2023-05-10T23:33:38.245Z,92.72
2023-05-10T23:36:04.846Z,92.72
2023-05-10T23:38:31.669Z,92.90
2023-05-10T23:40:58.107Z,93.04
2023-05-10T23:43:25.267Z,92.99
2023-05-10T23:45:56.016Z,93.01
2023-05-10T23:48:22.747Z,93.00
2023-05-10T23:50:49.435Z,92.81
2023-05-10T23:53:16.612Z,93.04
2023-05-10T23:55:43.170Z,92.83
2023-05-10T23:58:09.667Z,92.72
